sensor_id;sensor_type;location;lat;lon;timestamp;P1;durP1;ratioP1;P2;durP2;ratioP2
15412;SDS011;7805;49.554;7.632;2023-05-10T00:01:40;1.60;;;1.50;;
15412;SDS011;7805;49.554;7.632;2023-05-10T00:04:05;1.77;;;1.50;;
15412;SDS011;7805;49.554;7.632;2023-05-10T00:06:31;1.87;;;1.57;;
15412;SDS011;7805;49.554;7.632;2023-05-10T00:08:57;1.27;;;1.27;;
15412;SDS011;7805;49.554;7.632;2023-05-10T00:11:22;5.50;;;2.00;;
15412;SDS011;7805;49.554;7.632;2023-05-10T00:13:48;3.23;;;1.57;;
15412;SDS011;7805;49.554;7.632;2023-05-10T00:16:14;3.27;;;1.60;;
15412;SDS011;7805;49.554;7.632;2023-05-10T00:18:40;2.80;;;1.37;;
15412;SDS011;7805;49.554;7.632;2023-05-10T00:21:05;1.87;;;1.60;;
15412;SDS011;7805;49.554;7.632;2023-05-10T00:23:31;1.80;;;1.70;;
15412;SDS011;7805;49.554;7.632;2023-05-10T00:25:56;3.43;;;2.07;;
15412;SDS011;7805;49.554;7.632;2023-05-10T00:28:22;1.70;;;1.60;;
15412;SDS011;7805;49.554;7.632;2023-05-10T00:30:48;1.17;;;1.17;;
15412;SDS011;7805;49.554;7.632;2023-05-10T00:33:13;1.73;;;1.43;;
15412;SDS011;7805;49.554;7.632;2023-05-10T00:35:39;1.60;;;1.50;;
15412;SDS011;7805;49.554;7.632;2023-05-10T00:38:05;2.30;;;1.30;;
15412;SDS011;7805;49.554;7.632;2023-05-10T00:40:31;1.47;;;1.37;;
15412;SDS011;7805;49.554;7.632;2023-05-10T00:42:57;3.43;;;1.70;;
15412;SDS011;7805;49.554;7.632;2023-05-10T00:45:23;2.37;;;1.40;;
15412;SDS011;7805;49.554;7.632;2023-05-10T00:47:49;2.10;;;1.50;;
15412;SDS011;7805;49.554;7.632;2023-05-10T00:50:17;2.80;;;1.90;;
15412;SDS011;7805;49.554;7.632;2023-05-10T00:52:43;2.10;;;1.50;;
15412;SDS011;7805;49.554;7.632;2023-05-10T00:55:09;2.00;;;1.70;;
15412;SDS011;7805;49.554;7.632;2023-05-10T00:57:36;1.70;;;1.60;;
15412;SDS011;7805;49.554;7.632;2023-05-10T01:00:02;3.03;;;2.00;;
15412;SDS011;7805;49.554;7.632;2023-05-10T01:02:28;2.90;;;1.87;;
15412;SDS011;7805;49.554;7.632;2023-05-10T01:04:54;2.73;;;1.80;;
15412;SDS011;7805;49.554;7.632;2023-05-10T01:07:20;2.00;;;1.90;;
15412;SDS011;7805;49.554;7.632;2023-05-10T01:09:45;2.33;;;2.07;;
15412;SDS011;7805;49.554;7.632;2023-05-10T01:12:11;2.83;;;1.80;;
15412;SDS011;7805;49.554;7.632;2023-05-10T01:14:37;2.43;;;2.00;;
15412;SDS011;7805;49.554;7.632;2023-05-10T01:17:03;3.00;;;2.60;;
15412;SDS011;7805;49.554;7.632;2023-05-10T01:19:31;2.17;;;1.97;;
15412;SDS011;7805;49.554;7.632;2023-05-10T01:24:38;3.60;;;1.97;;
15412;SDS011;7805;49.554;7.632;2023-05-10T01:33:22;2.10;;;2.00;;
15412;SDS011;7805;49.554;7.632;2023-05-10T01:36:03;2.10;;;2.00;;
15412;SDS011;7805;49.554;7.632;2023-05-10T01:38:46;3.87;;;2.63;;
15412;SDS011;7805;49.554;7.632;2023-05-10T01:41:19;5.13;;;2.60;;
15412;SDS011;7805;49.554;7.632;2023-05-10T01:46:30;3.07;;;2.67;;
15412;SDS011;7805;49.554;7.632;2023-05-10T01:49:02;5.30;;;2.60;;
15412;SDS011;7805;49.554;7.632;2023-05-10T01:51:47;3.70;;;2.47;;
15412;SDS011;7805;49.554;7.632;2023-05-10T01:54:16;2.40;;;2.30;;
15412;SDS011;7805;49.554;7.632;2023-05-10T01:56:44;2.77;;;2.57;;
15412;SDS011;7805;49.554;7.632;2023-05-10T01:59:15;2.93;;;2.37;;
15412;SDS011;7805;49.554;7.632;2023-05-10T02:01:43;2.97;;;2.23;;
15412;SDS011;7805;49.554;7.632;2023-05-10T02:04:11;2.20;;;2.10;;
15412;SDS011;7805;49.554;7.632;2023-05-10T02:06:41;2.43;;;2.23;;
15412;SDS011;7805;49.554;7.632;2023-05-10T02:09:08;2.30;;;2.10;;
15412;SDS011;7805;49.554;7.632;2023-05-10T02:11:38;2.20;;;2.10;;
15412;SDS011;7805;49.554;7.632;2023-05-10T02:14:07;2.30;;;2.10;;
15412;SDS011;7805;49.554;7.632;2023-05-10T02:16:36;3.33;;;2.10;;
15412;SDS011;7805;49.554;7.632;2023-05-10T02:19:03;2.50;;;2.37;;
15412;SDS011;7805;49.554;7.632;2023-05-10T02:21:33;2.43;;;2.23;;
15412;SDS011;7805;49.554;7.632;2023-05-10T02:24:00;3.03;;;2.80;;
15412;SDS011;7805;49.554;7.632;2023-05-10T02:26:28;2.90;;;2.60;;
15412;SDS011;7805;49.554;7.632;2023-05-10T02:28:55;2.23;;;2.13;;
15412;SDS011;7805;49.554;7.632;2023-05-10T02:31:23;3.50;;;2.53;;
15412;SDS011;7805;49.554;7.632;2023-05-10T02:33:49;4.60;;;2.73;;
15412;SDS011;7805;49.554;7.632;2023-05-10T02:36:16;3.13;;;2.40;;
15412;SDS011;7805;49.554;7.632;2023-05-10T02:38:42;2.77;;;2.57;;
15412;SDS011;7805;49.554;7.632;2023-05-10T02:41:09;4.33;;;2.63;;
15412;SDS011;7805;49.554;7.632;2023-05-10T02:43:36;3.73;;;2.20;;
15412;SDS011;7805;49.554;7.632;2023-05-10T02:46:03;2.87;;;2.67;;
15412;SDS011;7805;49.554;7.632;2023-05-10T02:48:28;3.00;;;2.13;;
15412;SDS011;7805;49.554;7.632;2023-05-10T02:50:54;4.70;;;2.70;;
15412;SDS011;7805;49.554;7.632;2023-05-10T02:53:29;4.10;;;2.70;;
15412;SDS011;7805;49.554;7.632;2023-05-10T02:55:57;4.37;;;2.43;;
15412;SDS011;7805;49.554;7.632;2023-05-10T02:58:25;4.70;;;2.70;;
15412;SDS011;7805;49.554;7.632;2023-05-10T03:00:51;3.37;;;2.33;;
15412;SDS011;7805;49.554;7.632;2023-05-10T03:03:17;6.20;;;2.40;;
15412;SDS011;7805;49.554;7.632;2023-05-10T03:05:43;3.03;;;2.60;;
15412;SDS011;7805;49.554;7.632;2023-05-10T03:08:08;4.40;;;2.97;;
15412;SDS011;7805;49.554;7.632;2023-05-10T03:10:37;3.70;;;3.00;;
15412;SDS011;7805;49.554;7.632;2023-05-10T03:13:21;3.00;;;2.63;;
15412;SDS011;7805;49.554;7.632;2023-05-10T03:16:04;4.93;;;2.90;;
15412;SDS011;7805;49.554;7.632;2023-05-10T03:21:24;3.23;;;2.83;;
15412;SDS011;7805;49.554;7.632;2023-05-10T03:23:58;4.23;;;3.20;;
15412;SDS011;7805;49.554;7.632;2023-05-10T03:26:30;7.50;;;2.80;;
15412;SDS011;7805;49.554;7.632;2023-05-10T03:28:56;3.70;;;3.30;;
15412;SDS011;7805;49.554;7.632;2023-05-10T03:31:24;7.03;;;3.43;;
15412;SDS011;7805;49.554;7.632;2023-05-10T03:33:50;3.60;;;3.33;;
15412;SDS011;7805;49.554;7.632;2023-05-10T03:36:17;4.67;;;3.20;;
15412;SDS011;7805;49.554;7.632;2023-05-10T03:38:43;6.07;;;3.77;;
15412;SDS011;7805;49.554;7.632;2023-05-10T03:41:21;6.03;;;3.77;;
15412;SDS011;7805;49.554;7.632;2023-05-10T03:43:46;7.00;;;3.43;;
15412;SDS011;7805;49.554;7.632;2023-05-10T03:46:12;8.43;;;4.00;;
15412;SDS011;7805;49.554;7.632;2023-05-10T03:48:37;4.90;;;3.70;;
15412;SDS011;7805;49.554;7.632;2023-05-10T03:51:03;7.43;;;4.20;;
15412;SDS011;7805;49.554;7.632;2023-05-10T03:53:29;4.63;;;3.97;;
15412;SDS011;7805;49.554;7.632;2023-05-10T03:55:54;4.60;;;4.20;;
15412;SDS011;7805;49.554;7.632;2023-05-10T03:58:20;5.63;;;4.20;;
15412;SDS011;7805;49.554;7.632;2023-05-10T04:00:46;5.00;;;3.97;;
15412;SDS011;7805;49.554;7.632;2023-05-10T04:03:12;6.17;;;3.73;;
15412;SDS011;7805;49.554;7.632;2023-05-10T04:05:38;5.23;;;3.90;;
15412;SDS011;7805;49.554;7.632;2023-05-10T04:08:04;6.17;;;4.20;;
15412;SDS011;7805;49.554;7.632;2023-05-10T04:10:30;5.27;;;4.27;;
15412;SDS011;7805;49.554;7.632;2023-05-10T04:12:55;5.50;;;4.07;;
15412;SDS011;7805;49.554;7.632;2023-05-10T04:15:21;8.50;;;4.20;;
15412;SDS011;7805;49.554;7.632;2023-05-10T04:17:47;8.90;;;4.83;;
15412;SDS011;7805;49.554;7.632;2023-05-10T04:20:13;9.00;;;4.70;;
15412;SDS011;7805;49.554;7.632;2023-05-10T04:22:39;4.67;;;4.27;;
15412;SDS011;7805;49.554;7.632;2023-05-10T04:25:05;6.03;;;4.60;;
15412;SDS011;7805;49.554;7.632;2023-05-10T04:27:31;4.63;;;4.13;;
15412;SDS011;7805;49.554;7.632;2023-05-10T04:29:57;6.73;;;4.20;;
15412;SDS011;7805;49.554;7.632;2023-05-10T04:32:22;8.53;;;4.90;;
15412;SDS011;7805;49.554;7.632;2023-05-10T04:34:48;4.93;;;4.47;;
15412;SDS011;7805;49.554;7.632;2023-05-10T04:37:14;5.17;;;4.50;;
15412;SDS011;7805;49.554;7.632;2023-05-10T04:39:39;4.57;;;4.07;;
15412;SDS011;7805;49.554;7.632;2023-05-10T04:42:05;6.57;;;5.10;;
15412;SDS011;7805;49.554;7.632;2023-05-10T04:44:31;6.83;;;4.60;;
15412;SDS011;7805;49.554;7.632;2023-05-10T04:46:57;5.63;;;5.03;;
15412;SDS011;7805;49.554;7.632;2023-05-10T04:49:22;7.77;;;4.97;;
15412;SDS011;7805;49.554;7.632;2023-05-10T04:51:48;7.80;;;5.60;;
15412;SDS011;7805;49.554;7.632;2023-05-10T04:54:13;6.77;;;5.50;;
15412;SDS011;7805;49.554;7.632;2023-05-10T04:56:39;9.67;;;8.87;;
15412;SDS011;7805;49.554;7.632;2023-05-10T04:59:05;6.63;;;5.97;;
15412;SDS011;7805;49.554;7.632;2023-05-10T05:01:31;6.33;;;5.70;;
15412;SDS011;7805;49.554;7.632;2023-05-10T05:03:57;5.27;;;4.77;;
15412;SDS011;7805;49.554;7.632;2023-05-10T05:06:22;5.93;;;5.33;;
15412;SDS011;7805;49.554;7.632;2023-05-10T05:08:49;6.20;;;4.83;;
15412;SDS011;7805;49.554;7.632;2023-05-10T05:11:15;7.77;;;4.93;;
15412;SDS011;7805;49.554;7.632;2023-05-10T05:13:42;7.13;;;4.57;;
15412;SDS011;7805;49.554;7.632;2023-05-10T05:16:07;4.83;;;4.20;;
15412;SDS011;7805;49.554;7.632;2023-05-10T05:18:33;6.30;;;5.10;;
15412;SDS011;7805;49.554;7.632;2023-05-10T05:20:58;4.93;;;4.37;;
15412;SDS011;7805;49.554;7.632;2023-05-10T05:23:24;6.93;;;3.90;;
15412;SDS011;7805;49.554;7.632;2023-05-10T05:25:51;5.03;;;4.20;;
15412;SDS011;7805;49.554;7.632;2023-05-10T05:28:17;3.30;;;3.10;;
15412;SDS011;7805;49.554;7.632;2023-05-10T05:30:43;5.13;;;3.43;;
15412;SDS011;7805;49.554;7.632;2023-05-10T05:33:08;4.67;;;3.23;;
15412;SDS011;7805;49.554;7.632;2023-05-10T05:35:34;3.27;;;2.97;;
15412;SDS011;7805;49.554;7.632;2023-05-10T05:37:59;3.27;;;2.93;;
15412;SDS011;7805;49.554;7.632;2023-05-10T05:40:25;4.47;;;4.07;;
15412;SDS011;7805;49.554;7.632;2023-05-10T05:42:50;3.43;;;3.10;;
15412;SDS011;7805;49.554;7.632;2023-05-10T05:45:16;2.80;;;2.60;;
15412;SDS011;7805;49.554;7.632;2023-05-10T05:47:41;2.73;;;2.17;;
15412;SDS011;7805;49.554;7.632;2023-05-10T05:50:07;3.60;;;2.20;;
15412;SDS011;7805;49.554;7.632;2023-05-10T05:52:33;5.63;;;2.10;;
15412;SDS011;7805;49.554;7.632;2023-05-10T05:54:59;1.93;;;1.57;;
15412;SDS011;7805;49.554;7.632;2023-05-10T05:57:25;2.17;;;1.73;;
15412;SDS011;7805;49.554;7.632;2023-05-10T05:59:51;2.47;;;1.60;;
15412;SDS011;7805;49.554;7.632;2023-05-10T06:02:17;1.53;;;1.43;;
15412;SDS011;7805;49.554;7.632;2023-05-10T06:04:42;1.47;;;1.37;;
15412;SDS011;7805;49.554;7.632;2023-05-10T06:07:08;4.33;;;1.63;;
15412;SDS011;7805;49.554;7.632;2023-05-10T06:09:34;1.37;;;1.23;;
15412;SDS011;7805;49.554;7.632;2023-05-10T06:11:59;1.57;;;1.40;;
15412;SDS011;7805;49.554;7.632;2023-05-10T06:14:25;1.40;;;1.23;;
15412;SDS011;7805;49.554;7.632;2023-05-10T06:16:50;3.20;;;1.50;;
15412;SDS011;7805;49.554;7.632;2023-05-10T06:19:16;1.67;;;1.40;;
15412;SDS011;7805;49.554;7.632;2023-05-10T06:21:42;2.53;;;1.80;;
15412;SDS011;7805;49.554;7.632;2023-05-10T06:24:07;1.83;;;1.73;;
15412;SDS011;7805;49.554;7.632;2023-05-10T06:26:33;2.40;;;1.70;;
15412;SDS011;7805;49.554;7.632;2023-05-10T06:28:59;2.20;;;1.83;;
15412;SDS011;7805;49.554;7.632;2023-05-10T06:31:24;3.67;;;1.63;;
15412;SDS011;7805;49.554;7.632;2023-05-10T06:33:50;1.73;;;1.63;;
15412;SDS011;7805;49.554;7.632;2023-05-10T06:36:15;1.77;;;1.67;;
15412;SDS011;7805;49.554;7.632;2023-05-10T06:38:41;2.87;;;1.60;;
15412;SDS011;7805;49.554;7.632;2023-05-10T06:41:06;1.50;;;1.40;;
15412;SDS011;7805;49.554;7.632;2023-05-10T06:43:33;3.37;;;1.50;;
15412;SDS011;7805;49.554;7.632;2023-05-10T06:45:58;4.10;;;1.30;;
15412;SDS011;7805;49.554;7.632;2023-05-10T06:48:24;1.17;;;1.10;;
15412;SDS011;7805;49.554;7.632;2023-05-10T06:50:50;1.50;;;1.03;;
15412;SDS011;7805;49.554;7.632;2023-05-10T06:53:15;1.70;;;1.20;;
15412;SDS011;7805;49.554;7.632;2023-05-10T06:55:41;2.60;;;1.40;;
15412;SDS011;7805;49.554;7.632;2023-05-10T06:58:06;1.93;;;1.10;;
15412;SDS011;7805;49.554;7.632;2023-05-10T07:00:32;1.40;;;1.07;;
15412;SDS011;7805;49.554;7.632;2023-05-10T07:02:57;1.10;;;1.10;;
15412;SDS011;7805;49.554;7.632;2023-05-10T07:05:23;2.00;;;1.40;;
15412;SDS011;7805;49.554;7.632;2023-05-10T07:07:49;1.13;;;1.13;;
15412;SDS011;7805;49.554;7.632;2023-05-10T07:10:15;1.23;;;1.00;;
15412;SDS011;7805;49.554;7.632;2023-05-10T07:12:40;1.20;;;1.10;;
15412;SDS011;7805;49.554;7.632;2023-05-10T07:15:06;1.17;;;1.00;;
15412;SDS011;7805;49.554;7.632;2023-05-10T07:17:32;1.20;;;1.10;;
15412;SDS011;7805;49.554;7.632;2023-05-10T07:19:58;0.80;;;0.80;;
15412;SDS011;7805;49.554;7.632;2023-05-10T07:22:25;1.10;;;0.80;;
15412;SDS011;7805;49.554;7.632;2023-05-10T07:24:50;0.87;;;0.70;;
15412;SDS011;7805;49.554;7.632;2023-05-10T07:27:16;1.83;;;1.03;;
15412;SDS011;7805;49.554;7.632;2023-05-10T07:29:42;0.80;;;0.80;;
15412;SDS011;7805;49.554;7.632;2023-05-10T07:32:07;2.00;;;0.70;;
15412;SDS011;7805;49.554;7.632;2023-05-10T07:34:33;1.00;;;1.00;;
15412;SDS011;7805;49.554;7.632;2023-05-10T07:36:58;0.90;;;0.83;;
15412;SDS011;7805;49.554;7.632;2023-05-10T07:39:24;0.70;;;0.70;;
15412;SDS011;7805;49.554;7.632;2023-05-10T07:41:50;1.23;;;0.67;;
15412;SDS011;7805;49.554;7.632;2023-05-10T07:44:16;0.67;;;0.60;;
15412;SDS011;7805;49.554;7.632;2023-05-10T07:46:44;0.97;;;0.83;;
15412;SDS011;7805;49.554;7.632;2023-05-10T07:49:09;0.80;;;0.80;;
15412;SDS011;7805;49.554;7.632;2023-05-10T07:51:35;1.13;;;1.00;;
15412;SDS011;7805;49.554;7.632;2023-05-10T07:54:00;1.10;;;1.00;;
15412;SDS011;7805;49.554;7.632;2023-05-10T07:56:28;0.93;;;0.93;;
15412;SDS011;7805;49.554;7.632;2023-05-10T07:58:56;3.77;;;1.23;;
15412;SDS011;7805;49.554;7.632;2023-05-10T08:01:23;2.43;;;1.40;;
15412;SDS011;7805;49.554;7.632;2023-05-10T08:03:49;1.60;;;1.23;;
15412;SDS011;7805;49.554;7.632;2023-05-10T08:06:16;1.77;;;1.27;;
15412;SDS011;7805;49.554;7.632;2023-05-10T08:08:43;1.50;;;1.40;;
15412;SDS011;7805;49.554;7.632;2023-05-10T08:11:10;1.87;;;1.77;;
15412;SDS011;7805;49.554;7.632;2023-05-10T08:13:36;2.77;;;1.60;;
15412;SDS011;7805;49.554;7.632;2023-05-10T08:16:01;1.50;;;1.40;;
15412;SDS011;7805;49.554;7.632;2023-05-10T08:18:27;3.17;;;1.80;;
15412;SDS011;7805;49.554;7.632;2023-05-10T08:20:53;3.57;;;1.70;;
15412;SDS011;7805;49.554;7.632;2023-05-10T08:23:18;4.43;;;1.60;;
15412;SDS011;7805;49.554;7.632;2023-05-10T08:25:44;2.90;;;1.40;;
15412;SDS011;7805;49.554;7.632;2023-05-10T08:28:09;3.27;;;1.20;;
15412;SDS011;7805;49.554;7.632;2023-05-10T08:30:35;1.37;;;1.27;;
15412;SDS011;7805;49.554;7.632;2023-05-10T08:33:00;2.40;;;1.20;;
15412;SDS011;7805;49.554;7.632;2023-05-10T08:35:26;1.87;;;1.33;;
15412;SDS011;7805;49.554;7.632;2023-05-10T08:37:52;1.00;;;1.00;;
15412;SDS011;7805;49.554;7.632;2023-05-10T08:40:18;1.63;;;1.07;;
15412;SDS011;7805;49.554;7.632;2023-05-10T08:42:47;2.87;;;0.80;;
15412;SDS011;7805;49.554;7.632;2023-05-10T08:45:22;0.53;;;0.53;;
15412;SDS011;7805;49.554;7.632;2023-05-10T08:47:49;3.40;;;0.67;;
15412;SDS011;7805;49.554;7.632;2023-05-10T08:50:16;0.60;;;0.57;;
15412;SDS011;7805;49.554;7.632;2023-05-10T08:52:45;0.60;;;0.60;;
15412;SDS011;7805;49.554;7.632;2023-05-10T08:55:13;0.77;;;0.70;;
15412;SDS011;7805;49.554;7.632;2023-05-10T08:57:40;0.90;;;0.90;;
15412;SDS011;7805;49.554;7.632;2023-05-10T09:00:05;1.07;;;0.90;;
15412;SDS011;7805;49.554;7.632;2023-05-10T09:02:32;9.50;;;8.37;;
15412;SDS011;7805;49.554;7.632;2023-05-10T09:04:59;1.83;;;1.73;;
15412;SDS011;7805;49.554;7.632;2023-05-10T09:07:25;4.80;;;4.47;;
15412;SDS011;7805;49.554;7.632;2023-05-10T09:09:50;2.10;;;1.33;;
15412;SDS011;7805;49.554;7.632;2023-05-10T09:12:17;1.40;;;1.30;;
15412;SDS011;7805;49.554;7.632;2023-05-10T09:14:43;0.40;;;0.40;;
15412;SDS011;7805;49.554;7.632;2023-05-10T09:17:10;3.20;;;3.00;;
15412;SDS011;7805;49.554;7.632;2023-05-10T09:19:35;0.73;;;0.60;;
15412;SDS011;7805;49.554;7.632;2023-05-10T09:22:01;4.50;;;0.80;;
15412;SDS011;7805;49.554;7.632;2023-05-10T09:24:28;1.47;;;0.70;;
15412;SDS011;7805;49.554;7.632;2023-05-10T09:26:55;0.57;;;0.43;;
15412;SDS011;7805;49.554;7.632;2023-05-10T09:29:22;1.87;;;0.90;;
15412;SDS011;7805;49.554;7.632;2023-05-10T09:31:48;1.20;;;1.00;;
15412;SDS011;7805;49.554;7.632;2023-05-10T09:34:20;1.80;;;0.90;;
15412;SDS011;7805;49.554;7.632;2023-05-10T09:36:57;0.90;;;0.90;;
15412;SDS011;7805;49.554;7.632;2023-05-10T09:39:38;2.70;;;1.00;;
15412;SDS011;7805;49.554;7.632;2023-05-10T09:42:04;1.10;;;0.70;;
15412;SDS011;7805;49.554;7.632;2023-05-10T09:44:32;1.87;;;1.00;;
15412;SDS011;7805;49.554;7.632;2023-05-10T09:46:58;1.23;;;1.00;;
15412;SDS011;7805;49.554;7.632;2023-05-10T09:49:24;0.90;;;0.90;;
15412;SDS011;7805;49.554;7.632;2023-05-10T09:52:11;2.50;;;1.10;;
15412;SDS011;7805;49.554;7.632;2023-05-10T09:54:36;1.30;;;1.20;;
15412;SDS011;7805;49.554;7.632;2023-05-10T09:57:01;1.30;;;1.20;;
15412;SDS011;7805;49.554;7.632;2023-05-10T09:59:27;2.57;;;1.27;;
15412;SDS011;7805;49.554;7.632;2023-05-10T10:01:57;2.30;;;1.10;;
15412;SDS011;7805;49.554;7.632;2023-05-10T10:04:24;1.53;;;1.17;;
15412;SDS011;7805;49.554;7.632;2023-05-10T10:07:03;2.10;;;1.23;;
15412;SDS011;7805;49.554;7.632;2023-05-10T10:09:29;1.37;;;0.90;;
15412;SDS011;7805;49.554;7.632;2023-05-10T10:11:55;2.73;;;1.20;;
15412;SDS011;7805;49.554;7.632;2023-05-10T10:14:21;3.13;;;1.30;;
15412;SDS011;7805;49.554;7.632;2023-05-10T10:16:49;3.33;;;0.97;;
15412;SDS011;7805;49.554;7.632;2023-05-10T10:19:15;2.17;;;1.20;;
15412;SDS011;7805;49.554;7.632;2023-05-10T10:21:43;2.73;;;1.20;;
15412;SDS011;7805;49.554;7.632;2023-05-10T10:24:08;1.60;;;1.20;;
15412;SDS011;7805;49.554;7.632;2023-05-10T10:26:34;1.58;;;1.05;;
15412;SDS011;7805;49.554;7.632;2023-05-10T10:29:10;2.20;;;1.00;;
15412;SDS011;7805;49.554;7.632;2023-05-10T10:32:51;3.50;;;1.02;;
15412;SDS011;7805;49.554;7.632;2023-05-10T10:34:49;2.83;;;1.00;;
15412;SDS011;7805;49.554;7.632;2023-05-10T10:37:15;1.65;;;0.90;;
15412;SDS011;7805;49.554;7.632;2023-05-10T10:39:40;3.10;;;0.70;;
15412;SDS011;7805;49.554;7.632;2023-05-10T10:42:06;3.28;;;1.00;;
15412;SDS011;7805;49.554;7.632;2023-05-10T10:46:59;3.65;;;0.90;;
15412;SDS011;7805;49.554;7.632;2023-05-10T10:55:19;4.88;;;1.15;;
15412;SDS011;7805;49.554;7.632;2023-05-10T11:02:59;4.20;;;0.90;;
15412;SDS011;7805;49.554;7.632;2023-05-10T11:08:18;1.52;;;0.90;;
15412;SDS011;7805;49.554;7.632;2023-05-10T11:13:37;4.13;;;1.30;;
15412;SDS011;7805;49.554;7.632;2023-05-10T11:16:24;3.08;;;0.98;;
15412;SDS011;7805;49.554;7.632;2023-05-10T11:21:26;2.95;;;1.15;;
15412;SDS011;7805;49.554;7.632;2023-05-10T11:23:53;1.25;;;0.70;;
15412;SDS011;7805;49.554;7.632;2023-05-10T11:26:29;3.72;;;1.23;;
15412;SDS011;7805;49.554;7.632;2023-05-10T11:28:56;2.83;;;0.98;;
15412;SDS011;7805;49.554;7.632;2023-05-10T11:31:24;1.58;;;0.88;;
15412;SDS011;7805;49.554;7.632;2023-05-10T11:33:55;2.72;;;1.02;;
15412;SDS011;7805;49.554;7.632;2023-05-10T11:36:26;7.78;;;1.30;;
15412;SDS011;7805;49.554;7.632;2023-05-10T11:38:53;5.15;;;1.13;;
15412;SDS011;7805;49.554;7.632;2023-05-10T11:41:20;1.48;;;0.60;;
15412;SDS011;7805;49.554;7.632;2023-05-10T11:43:47;1.67;;;1.00;;
15412;SDS011;7805;49.554;7.632;2023-05-10T11:46:14;3.67;;;0.70;;
15412;SDS011;7805;49.554;7.632;2023-05-10T11:48:41;2.22;;;0.70;;
15412;SDS011;7805;49.554;7.632;2023-05-10T11:51:07;2.63;;;1.23;;
15412;SDS011;7805;49.554;7.632;2023-05-10T11:53:34;2.53;;;1.17;;
15412;SDS011;7805;49.554;7.632;2023-05-10T11:56:10;2.13;;;0.90;;
15412;SDS011;7805;49.554;7.632;2023-05-10T11:58:36;2.33;;;0.65;;
15412;SDS011;7805;49.554;7.632;2023-05-10T12:01:04;3.30;;;0.85;;
15412;SDS011;7805;49.554;7.632;2023-05-10T12:03:31;0.80;;;0.60;;
15412;SDS011;7805;49.554;7.632;2023-05-10T12:05:57;3.65;;;0.88;;
15412;SDS011;7805;49.554;7.632;2023-05-10T12:08:25;2.22;;;0.60;;
15412;SDS011;7805;49.554;7.632;2023-05-10T12:10:51;4.13;;;0.70;;
15412;SDS011;7805;49.554;7.632;2023-05-10T12:13:19;2.53;;;1.10;;
15412;SDS011;7805;49.554;7.632;2023-05-10T12:15:46;2.47;;;0.60;;
15412;SDS011;7805;49.554;7.632;2023-05-10T12:18:12;4.60;;;1.38;;
15412;SDS011;7805;49.554;7.632;2023-05-10T12:20:39;2.47;;;0.90;;
15412;SDS011;7805;49.554;7.632;2023-05-10T12:23:05;2.40;;;0.70;;
15412;SDS011;7805;49.554;7.632;2023-05-10T12:25:35;1.23;;;0.60;;
15412;SDS011;7805;49.554;7.632;2023-05-10T12:28:06;1.65;;;0.85;;
15412;SDS011;7805;49.554;7.632;2023-05-10T12:30:34;0.85;;;0.80;;
15412;SDS011;7805;49.554;7.632;2023-05-10T12:33:01;1.90;;;0.80;;
15412;SDS011;7805;49.554;7.632;2023-05-10T12:35:42;3.78;;;1.42;;
15412;SDS011;7805;49.554;7.632;2023-05-10T12:38:26;1.52;;;0.80;;
15412;SDS011;7805;49.554;7.632;2023-05-10T12:40:55;2.78;;;0.98;;
15412;SDS011;7805;49.554;7.632;2023-05-10T12:43:29;1.92;;;0.77;;
15412;SDS011;7805;49.554;7.632;2023-05-10T12:45:55;2.00;;;0.85;;
15412;SDS011;7805;49.554;7.632;2023-05-10T12:48:21;4.65;;;1.10;;
15412;SDS011;7805;49.554;7.632;2023-05-10T12:50:47;4.20;;;0.90;;
15412;SDS011;7805;49.554;7.632;2023-05-10T12:53:13;1.27;;;0.90;;
15412;SDS011;7805;49.554;7.632;2023-05-10T12:55:40;1.95;;;0.60;;
15412;SDS011;7805;49.554;7.632;2023-05-10T12:58:06;4.85;;;1.10;;
15412;SDS011;7805;49.554;7.632;2023-05-10T13:00:32;3.63;;;1.13;;
15412;SDS011;7805;49.554;7.632;2023-05-10T13:02:58;6.15;;;0.90;;
15412;SDS011;7805;49.554;7.632;2023-05-10T13:05:23;3.88;;;0.52;;
15412;SDS011;7805;49.554;7.632;2023-05-10T13:07:49;2.42;;;0.60;;
15412;SDS011;7805;49.554;7.632;2023-05-10T13:10:14;2.88;;;0.80;;
15412;SDS011;7805;49.554;7.632;2023-05-10T13:12:40;1.52;;;0.88;;
15412;SDS011;7805;49.554;7.632;2023-05-10T13:15:06;1.27;;;0.68;;
15412;SDS011;7805;49.554;7.632;2023-05-10T13:17:32;1.30;;;0.88;;
15412;SDS011;7805;49.554;7.632;2023-05-10T13:19:58;0.95;;;0.50;;
15412;SDS011;7805;49.554;7.632;2023-05-10T13:22:23;2.00;;;0.68;;
15412;SDS011;7805;49.554;7.632;2023-05-10T13:24:49;2.53;;;0.90;;
15412;SDS011;7805;49.554;7.632;2023-05-10T13:27:15;1.88;;;0.90;;
15412;SDS011;7805;49.554;7.632;2023-05-10T13:29:40;1.63;;;0.80;;
15412;SDS011;7805;49.554;7.632;2023-05-10T13:32:06;3.38;;;0.50;;
15412;SDS011;7805;49.554;7.632;2023-05-10T13:34:31;1.80;;;0.47;;
15412;SDS011;7805;49.554;7.632;2023-05-10T13:36:57;1.40;;;0.47;;
15412;SDS011;7805;49.554;7.632;2023-05-10T13:39:23;2.53;;;0.60;;
15412;SDS011;7805;49.554;7.632;2023-05-10T13:41:48;4.07;;;0.63;;
15412;SDS011;7805;49.554;7.632;2023-05-10T13:44:16;3.00;;;0.73;;
15412;SDS011;7805;49.554;7.632;2023-05-10T13:46:42;2.90;;;1.00;;
15412;SDS011;7805;49.554;7.632;2023-05-10T13:49:08;1.02;;;0.93;;
15412;SDS011;7805;49.554;7.632;2023-05-10T13:51:34;2.30;;;0.52;;
15412;SDS011;7805;49.554;7.632;2023-05-10T13:54:00;0.88;;;0.50;;
15412;SDS011;7805;49.554;7.632;2023-05-10T13:56:26;0.52;;;0.40;;
15412;SDS011;7805;49.554;7.632;2023-05-10T13:58:52;0.90;;;0.70;;
15412;SDS011;7805;49.554;7.632;2023-05-10T14:01:17;3.20;;;0.40;;
15412;SDS011;7805;49.554;7.632;2023-05-10T14:03:43;2.08;;;0.70;;
15412;SDS011;7805;49.554;7.632;2023-05-10T14:06:09;1.20;;;0.63;;
15412;SDS011;7805;49.554;7.632;2023-05-10T14:08:35;2.20;;;0.90;;
15412;SDS011;7805;49.554;7.632;2023-05-10T14:11:00;2.08;;;0.90;;
15412;SDS011;7805;49.554;7.632;2023-05-10T14:13:26;2.70;;;0.60;;
15412;SDS011;7805;49.554;7.632;2023-05-10T14:15:53;1.83;;;0.82;;
15412;SDS011;7805;49.554;7.632;2023-05-10T14:18:19;1.55;;;0.57;;
15412;SDS011;7805;49.554;7.632;2023-05-10T14:20:45;1.60;;;0.90;;
15412;SDS011;7805;49.554;7.632;2023-05-10T14:23:11;2.00;;;0.50;;
15412;SDS011;7805;49.554;7.632;2023-05-10T14:25:37;0.40;;;0.40;;
15412;SDS011;7805;49.554;7.632;2023-05-10T14:28:04;1.52;;;0.40;;
15412;SDS011;7805;49.554;7.632;2023-05-10T14:30:30;0.77;;;0.45;;
15412;SDS011;7805;49.554;7.632;2023-05-10T14:32:56;1.27;;;0.35;;
15412;SDS011;7805;49.554;7.632;2023-05-10T14:35:23;0.30;;;0.30;;
15412;SDS011;7805;49.554;7.632;2023-05-10T14:37:48;0.70;;;0.55;;
15412;SDS011;7805;49.554;7.632;2023-05-10T14:40:14;1.95;;;0.55;;
15412;SDS011;7805;49.554;7.632;2023-05-10T14:42:40;1.85;;;0.30;;
15412;SDS011;7805;49.554;7.632;2023-05-10T14:45:07;0.40;;;0.40;;
15412;SDS011;7805;49.554;7.632;2023-05-10T14:47:33;2.30;;;0.77;;
15412;SDS011;7805;49.554;7.632;2023-05-10T14:49:59;0.63;;;0.50;;
15412;SDS011;7805;49.554;7.632;2023-05-10T14:52:25;0.60;;;0.30;;
15412;SDS011;7805;49.554;7.632;2023-05-10T14:54:50;0.70;;;0.60;;
15412;SDS011;7805;49.554;7.632;2023-05-10T14:57:16;1.50;;;0.55;;
15412;SDS011;7805;49.554;7.632;2023-05-10T14:59:42;2.85;;;0.52;;
15412;SDS011;7805;49.554;7.632;2023-05-10T15:02:07;1.35;;;0.47;;
15412;SDS011;7805;49.554;7.632;2023-05-10T15:04:33;1.98;;;0.40;;
15412;SDS011;7805;49.554;7.632;2023-05-10T15:06:58;1.55;;;0.40;;
15412;SDS011;7805;49.554;7.632;2023-05-10T15:09:24;0.50;;;0.30;;
15412;SDS011;7805;49.554;7.632;2023-05-10T15:11:52;0.40;;;0.38;;
15412;SDS011;7805;49.554;7.632;2023-05-10T15:14:18;2.50;;;0.50;;
15412;SDS011;7805;49.554;7.632;2023-05-10T15:16:43;1.27;;;0.40;;
15412;SDS011;7805;49.554;7.632;2023-05-10T15:19:09;1.38;;;0.38;;
15412;SDS011;7805;49.554;7.632;2023-05-10T15:21:34;0.60;;;0.50;;
15412;SDS011;7805;49.554;7.632;2023-05-10T15:24:04;0.68;;;0.30;;
15412;SDS011;7805;49.554;7.632;2023-05-10T15:26:30;2.60;;;0.70;;
15412;SDS011;7805;49.554;7.632;2023-05-10T15:28:56;1.15;;;0.50;;
15412;SDS011;7805;49.554;7.632;2023-05-10T15:31:22;0.90;;;0.40;;
15412;SDS011;7805;49.554;7.632;2023-05-10T15:33:47;0.85;;;0.30;;
15412;SDS011;7805;49.554;7.632;2023-05-10T15:36:13;0.50;;;0.45;;